sensor_id;sensor_type;location;lat;lon;timestamp;P1;durP1;ratioP1;P2;durP2;ratioP2
14748;SDS011;7466;53.574;9.976;2023-04-06T00:01:00;4.63;;;4.13;;
14748;SDS011;7466;53.574;9.976;2023-04-06T00:03:27;4.77;;;4.30;;
14748;SDS011;7466;53.574;9.976;2023-04-06T00:05:55;4.37;;;3.97;;
14748;SDS011;7466;53.574;9.976;2023-04-06T00:08:22;4.50;;;4.10;;
14748;SDS011;7466;53.574;9.976;2023-04-06T00:10:50;5.13;;;4.63;;
14748;SDS011;7466;53.574;9.976;2023-04-06T00:13:18;5.10;;;4.50;;
14748;SDS011;7466;53.574;9.976;2023-04-06T00:15:45;4.93;;;4.50;;
14748;SDS011;7466;53.574;9.976;2023-04-06T00:18:12;4.83;;;4.33;;
14748;SDS011;7466;53.574;9.976;2023-04-06T00:20:39;5.20;;;4.73;;
14748;SDS011;7466;53.574;9.976;2023-04-06T00:23:06;4.73;;;4.03;;
14748;SDS011;7466;53.574;9.976;2023-04-06T00:25:33;5.40;;;4.40;;
14748;SDS011;7466;53.574;9.976;2023-04-06T00:28:01;6.40;;;4.63;;
14748;SDS011;7466;53.574;9.976;2023-04-06T00:30:29;6.93;;;4.67;;
14748;SDS011;7466;53.574;9.976;2023-04-06T00:32:56;5.33;;;4.93;;
14748;SDS011;7466;53.574;9.976;2023-04-06T00:35:25;6.83;;;4.93;;
14748;SDS011;7466;53.574;9.976;2023-04-06T00:37:52;5.33;;;4.83;;
14748;SDS011;7466;53.574;9.976;2023-04-06T00:40:19;7.80;;;5.10;;
14748;SDS011;7466;53.574;9.976;2023-04-06T00:42:46;5.80;;;4.97;;
14748;SDS011;7466;53.574;9.976;2023-04-06T00:45:15;5.73;;;4.73;;
14748;SDS011;7466;53.574;9.976;2023-04-06T00:47:42;6.70;;;4.77;;
14748;SDS011;7466;53.574;9.976;2023-04-06T00:50:09;6.57;;;5.17;;
14748;SDS011;7466;53.574;9.976;2023-04-06T00:52:36;5.70;;;5.10;;
14748;SDS011;7466;53.574;9.976;2023-04-06T00:55:03;4.87;;;4.47;;
14748;SDS011;7466;53.574;9.976;2023-04-06T00:57:31;5.70;;;4.80;;
14748;SDS011;7466;53.574;9.976;2023-04-06T00:59:58;5.53;;;5.03;;
14748;SDS011;7466;53.574;9.976;2023-04-06T01:02:27;5.10;;;4.57;;
14748;SDS011;7466;53.574;9.976;2023-04-06T01:04:54;8.50;;;5.83;;
14748;SDS011;7466;53.574;9.976;2023-04-06T01:07:22;7.57;;;5.10;;
14748;SDS011;7466;53.574;9.976;2023-04-06T01:09:50;5.03;;;4.60;;
14748;SDS011;7466;53.574;9.976;2023-04-06T01:12:19;7.97;;;5.13;;
14748;SDS011;7466;53.574;9.976;2023-04-06T01:14:46;6.23;;;4.83;;
14748;SDS011;7466;53.574;9.976;2023-04-06T01:17:13;6.17;;;4.60;;
14748;SDS011;7466;53.574;9.976;2023-04-06T01:19:41;5.60;;;5.10;;
14748;SDS011;7466;53.574;9.976;2023-04-06T01:22:14;6.43;;;5.00;;
14748;SDS011;7466;53.574;9.976;2023-04-06T01:24:42;6.37;;;5.27;;
14748;SDS011;7466;53.574;9.976;2023-04-06T01:27:09;5.43;;;4.93;;
14748;SDS011;7466;53.574;9.976;2023-04-06T01:29:36;5.27;;;4.73;;
14748;SDS011;7466;53.574;9.976;2023-04-06T01:32:06;7.13;;;5.00;;
14748;SDS011;7466;53.574;9.976;2023-04-06T01:34:33;5.47;;;4.80;;
14748;SDS011;7466;53.574;9.976;2023-04-06T01:37:00;7.80;;;4.83;;
14748;SDS011;7466;53.574;9.976;2023-04-06T01:39:28;5.50;;;5.00;;
14748;SDS011;7466;53.574;9.976;2023-04-06T01:41:56;6.13;;;5.13;;
14748;SDS011;7466;53.574;9.976;2023-04-06T01:44:23;6.03;;;5.30;;
14748;SDS011;7466;53.574;9.976;2023-04-06T01:46:50;5.17;;;4.67;;
14748;SDS011;7466;53.574;9.976;2023-04-06T01:49:17;6.47;;;4.93;;
14748;SDS011;7466;53.574;9.976;2023-04-06T01:51:44;6.20;;;5.60;;
14748;SDS011;7466;53.574;9.976;2023-04-06T01:54:10;6.50;;;5.57;;
14748;SDS011;7466;53.574;9.976;2023-04-06T01:56:39;8.37;;;5.93;;
14748;SDS011;7466;53.574;9.976;2023-04-06T01:59:07;5.70;;;5.23;;
14748;SDS011;7466;53.574;9.976;2023-04-06T02:01:34;5.90;;;5.40;;
14748;SDS011;7466;53.574;9.976;2023-04-06T02:04:01;6.30;;;5.70;;
14748;SDS011;7466;53.574;9.976;2023-04-06T02:06:27;6.43;;;5.83;;
14748;SDS011;7466;53.574;9.976;2023-04-06T02:08:55;6.87;;;6.17;;
14748;SDS011;7466;53.574;9.976;2023-04-06T02:11:22;7.13;;;5.97;;
14748;SDS011;7466;53.574;9.976;2023-04-06T02:13:50;6.73;;;6.03;;
14748;SDS011;7466;53.574;9.976;2023-04-06T02:16:17;6.50;;;5.90;;
14748;SDS011;7466;53.574;9.976;2023-04-06T02:18:44;8.97;;;5.80;;
14748;SDS011;7466;53.574;9.976;2023-04-06T02:21:11;7.80;;;5.70;;
14748;SDS011;7466;53.574;9.976;2023-04-06T02:23:38;7.03;;;6.00;;
14748;SDS011;7466;53.574;9.976;2023-04-06T02:26:05;10.80;;;6.50;;
14748;SDS011;7466;53.574;9.976;2023-04-06T02:28:32;6.87;;;5.60;;
14748;SDS011;7466;53.574;9.976;2023-04-06T02:31:01;6.80;;;5.93;;
14748;SDS011;7466;53.574;9.976;2023-04-06T02:33:28;10.53;;;5.90;;
14748;SDS011;7466;53.574;9.976;2023-04-06T02:35:55;6.47;;;5.83;;
14748;SDS011;7466;53.574;9.976;2023-04-06T02:38:22;6.73;;;6.00;;
14748;SDS011;7466;53.574;9.976;2023-04-06T02:40:50;6.93;;;6.23;;
14748;SDS011;7466;53.574;9.976;2023-04-06T02:43:17;7.03;;;6.30;;
14748;SDS011;7466;53.574;9.976;2023-04-06T02:45:43;6.77;;;5.97;;
14748;SDS011;7466;53.574;9.976;2023-04-06T02:48:12;6.73;;;6.03;;
14748;SDS011;7466;53.574;9.976;2023-04-06T02:50:39;6.77;;;6.07;;
14748;SDS011;7466;53.574;9.976;2023-04-06T02:53:05;6.63;;;5.70;;
14748;SDS011;7466;53.574;9.976;2023-04-06T02:55:32;6.73;;;5.80;;
14748;SDS011;7466;53.574;9.976;2023-04-06T02:58:00;6.77;;;6.17;;
14748;SDS011;7466;53.574;9.976;2023-04-06T03:00:27;6.60;;;6.00;;
14748;SDS011;7466;53.574;9.976;2023-04-06T03:02:53;6.67;;;5.90;;
14748;SDS011;7466;53.574;9.976;2023-04-06T03:05:22;8.53;;;6.10;;
14748;SDS011;7466;53.574;9.976;2023-04-06T03:07:49;9.40;;;6.90;;
14748;SDS011;7466;53.574;9.976;2023-04-06T03:10:16;8.40;;;6.70;;
14748;SDS011;7466;53.574;9.976;2023-04-06T03:12:43;13.07;;;7.57;;
14748;SDS011;7466;53.574;9.976;2023-04-06T03:15:10;9.67;;;7.43;;
14748;SDS011;7466;53.574;9.976;2023-04-06T03:17:37;9.63;;;7.67;;
14748;SDS011;7466;53.574;9.976;2023-04-06T03:20:05;8.70;;;7.80;;
14748;SDS011;7466;53.574;9.976;2023-04-06T03:22:34;9.03;;;7.47;;
14748;SDS011;7466;53.574;9.976;2023-04-06T03:25:01;12.87;;;8.17;;
14748;SDS011;7466;53.574;9.976;2023-04-06T03:27:28;11.30;;;7.83;;
14748;SDS011;7466;53.574;9.976;2023-04-06T03:29:55;8.53;;;7.37;;
14748;SDS011;7466;53.574;9.976;2023-04-06T03:32:22;10.70;;;7.57;;
14748;SDS011;7466;53.574;9.976;2023-04-06T03:34:49;11.57;;;8.33;;
14748;SDS011;7466;53.574;9.976;2023-04-06T03:37:16;8.80;;;7.90;;
14748;SDS011;7466;53.574;9.976;2023-04-06T03:39:45;11.00;;;7.87;;
14748;SDS011;7466;53.574;9.976;2023-04-06T03:42:12;9.20;;;7.97;;
14748;SDS011;7466;53.574;9.976;2023-04-06T03:44:39;8.33;;;7.63;;
14748;SDS011;7466;53.574;9.976;2023-04-06T03:47:07;11.47;;;8.40;;
14748;SDS011;7466;53.574;9.976;2023-04-06T03:49:34;11.67;;;8.00;;
14748;SDS011;7466;53.574;9.976;2023-04-06T03:52:01;9.60;;;8.63;;
14748;SDS011;7466;53.574;9.976;2023-04-06T03:54:28;8.70;;;7.87;;
14748;SDS011;7466;53.574;9.976;2023-04-06T03:56:57;11.83;;;8.90;;
14748;SDS011;7466;53.574;9.976;2023-04-06T03:59:24;11.27;;;9.03;;
14748;SDS011;7466;53.574;9.976;2023-04-06T04:01:51;11.80;;;8.73;;
14748;SDS011;7466;53.574;9.976;2023-04-06T04:04:18;10.43;;;8.47;;
14748;SDS011;7466;53.574;9.976;2023-04-06T04:06:45;9.53;;;8.23;;
14748;SDS011;7466;53.574;9.976;2023-04-06T04:09:12;9.20;;;8.30;;
14748;SDS011;7466;53.574;9.976;2023-04-06T04:11:39;11.10;;;8.73;;
14748;SDS011;7466;53.574;9.976;2023-04-06T04:14:07;9.53;;;8.63;;
14748;SDS011;7466;53.574;9.976;2023-04-06T04:16:34;13.13;;;8.90;;
14748;SDS011;7466;53.574;9.976;2023-04-06T04:19:01;9.60;;;8.60;;
14748;SDS011;7466;53.574;9.976;2023-04-06T04:21:29;10.33;;;8.73;;
14748;SDS011;7466;53.574;9.976;2023-04-06T04:23:56;8.73;;;7.73;;
14748;SDS011;7466;53.574;9.976;2023-04-06T04:26:24;8.00;;;7.20;;
14748;SDS011;7466;53.574;9.976;2023-04-06T04:28:51;8.83;;;7.97;;
14748;SDS011;7466;53.574;9.976;2023-04-06T04:31:19;8.40;;;7.70;;
14748;SDS011;7466;53.574;9.976;2023-04-06T04:33:47;8.93;;;8.07;;
14748;SDS011;7466;53.574;9.976;2023-04-06T04:36:15;8.07;;;7.27;;
14748;SDS011;7466;53.574;9.976;2023-04-06T04:38:42;8.63;;;7.90;;
14748;SDS011;7466;53.574;9.976;2023-04-06T04:41:09;9.17;;;8.37;;
14748;SDS011;7466;53.574;9.976;2023-04-06T04:43:36;8.97;;;8.10;;
14748;SDS011;7466;53.574;9.976;2023-04-06T04:46:03;9.43;;;8.63;;
14748;SDS011;7466;53.574;9.976;2023-04-06T04:48:33;9.87;;;8.83;;
14748;SDS011;7466;53.574;9.976;2023-04-06T04:51:00;9.43;;;8.53;;
14748;SDS011;7466;53.574;9.976;2023-04-06T04:53:27;14.03;;;8.77;;
14748;SDS011;7466;53.574;9.976;2023-04-06T04:55:55;11.27;;;8.40;;
14748;SDS011;7466;53.574;9.976;2023-04-06T04:58:22;14.27;;;8.57;;
14748;SDS011;7466;53.574;9.976;2023-04-06T05:00:49;12.37;;;7.97;;
14748;SDS011;7466;53.574;9.976;2023-04-06T05:03:17;11.13;;;8.60;;
14748;SDS011;7466;53.574;9.976;2023-04-06T05:05:48;9.50;;;8.33;;
14748;SDS011;7466;53.574;9.976;2023-04-06T05:08:15;9.00;;;8.10;;
14748;SDS011;7466;53.574;9.976;2023-04-06T05:10:42;10.77;;;8.93;;
14748;SDS011;7466;53.574;9.976;2023-04-06T05:13:11;9.67;;;8.67;;
14748;SDS011;7466;53.574;9.976;2023-04-06T05:15:39;12.63;;;9.47;;
14748;SDS011;7466;53.574;9.976;2023-04-06T05:18:07;10.40;;;8.30;;
14748;SDS011;7466;53.574;9.976;2023-04-06T05:20:35;11.90;;;8.43;;
14748;SDS011;7466;53.574;9.976;2023-04-06T05:23:03;12.33;;;9.13;;
14748;SDS011;7466;53.574;9.976;2023-04-06T05:25:31;11.97;;;8.33;;
14748;SDS011;7466;53.574;9.976;2023-04-06T05:27:58;9.77;;;8.20;;
14748;SDS011;7466;53.574;9.976;2023-04-06T05:30:28;9.90;;;8.03;;
14748;SDS011;7466;53.574;9.976;2023-04-06T05:33:06;8.97;;;8.07;;
14748;SDS011;7466;53.574;9.976;2023-04-06T05:35:33;14.17;;;9.77;;
14748;SDS011;7466;53.574;9.976;2023-04-06T05:38:00;9.27;;;8.33;;
14748;SDS011;7466;53.574;9.976;2023-04-06T05:40:29;13.33;;;8.10;;
14748;SDS011;7466;53.574;9.976;2023-04-06T05:42:56;10.17;;;9.13;;
14748;SDS011;7466;53.574;9.976;2023-04-06T05:45:24;10.30;;;8.93;;
14748;SDS011;7466;53.574;9.976;2023-04-06T05:47:51;10.80;;;8.57;;
14748;SDS011;7466;53.574;9.976;2023-04-06T05:50:18;12.03;;;8.90;;
14748;SDS011;7466;53.574;9.976;2023-04-06T05:52:46;11.03;;;9.27;;
14748;SDS011;7466;53.574;9.976;2023-04-06T05:55:17;10.57;;;8.77;;
14748;SDS011;7466;53.574;9.976;2023-04-06T05:57:49;9.47;;;8.53;;
14748;SDS011;7466;53.574;9.976;2023-04-06T06:00:16;14.10;;;8.53;;
14748;SDS011;7466;53.574;9.976;2023-04-06T06:02:44;16.17;;;8.23;;
14748;SDS011;7466;53.574;9.976;2023-04-06T06:05:12;10.47;;;8.83;;
14748;SDS011;7466;53.574;9.976;2023-04-06T06:07:39;10.67;;;9.13;;
14748;SDS011;7466;53.574;9.976;2023-04-06T06:10:07;11.07;;;9.40;;
14748;SDS011;7466;53.574;9.976;2023-04-06T06:12:35;12.50;;;9.03;;
14748;SDS011;7466;53.574;9.976;2023-04-06T06:15:03;10.47;;;8.83;;
14748;SDS011;7466;53.574;9.976;2023-04-06T06:17:31;12.60;;;9.20;;
14748;SDS011;7466;53.574;9.976;2023-04-06T06:19:58;11.97;;;9.47;;
14748;SDS011;7466;53.574;9.976;2023-04-06T06:22:25;12.23;;;9.43;;
14748;SDS011;7466;53.574;9.976;2023-04-06T06:24:52;10.83;;;8.07;;
14748;SDS011;7466;53.574;9.976;2023-04-06T06:27:19;15.77;;;9.00;;
14748;SDS011;7466;53.574;9.976;2023-04-06T06:29:46;10.73;;;9.63;;
14748;SDS011;7466;53.574;9.976;2023-04-06T06:32:15;13.27;;;9.33;;
14748;SDS011;7466;53.574;9.976;2023-04-06T06:34:42;12.00;;;8.77;;
14748;SDS011;7466;53.574;9.976;2023-04-06T06:37:09;11.40;;;9.10;;
14748;SDS011;7466;53.574;9.976;2023-04-06T06:39:36;9.70;;;8.37;;
14748;SDS011;7466;53.574;9.976;2023-04-06T06:42:03;9.60;;;8.67;;
14748;SDS011;7466;53.574;9.976;2023-04-06T06:44:30;17.07;;;9.00;;
14748;SDS011;7466;53.574;9.976;2023-04-06T06:46:57;12.60;;;8.27;;
14748;SDS011;7466;53.574;9.976;2023-04-06T06:49:25;13.63;;;8.57;;
14748;SDS011;7466;53.574;9.976;2023-04-06T06:51:52;11.60;;;8.40;;
14748;SDS011;7466;53.574;9.976;2023-04-06T06:54:20;11.30;;;8.20;;
14748;SDS011;7466;53.574;9.976;2023-04-06T06:56:47;13.77;;;7.53;;
14748;SDS011;7466;53.574;9.976;2023-04-06T06:59:14;9.07;;;7.23;;
14748;SDS011;7466;53.574;9.976;2023-04-06T07:01:42;12.07;;;7.53;;
14748;SDS011;7466;53.574;9.976;2023-04-06T07:04:09;7.90;;;7.20;;
14748;SDS011;7466;53.574;9.976;2023-04-06T07:06:38;8.50;;;7.00;;
14748;SDS011;7466;53.574;9.976;2023-04-06T07:09:05;7.80;;;7.03;;
14748;SDS011;7466;53.574;9.976;2023-04-06T07:11:35;9.20;;;7.60;;
14748;SDS011;7466;53.574;9.976;2023-04-06T07:14:06;8.07;;;6.77;;
14748;SDS011;7466;53.574;9.976;2023-04-06T07:16:33;11.90;;;6.80;;
14748;SDS011;7466;53.574;9.976;2023-04-06T07:19:01;8.30;;;6.83;;
14748;SDS011;7466;53.574;9.976;2023-04-06T07:21:28;9.77;;;6.67;;
14748;SDS011;7466;53.574;9.976;2023-04-06T07:24:01;12.63;;;6.70;;
14748;SDS011;7466;53.574;9.976;2023-04-06T07:26:31;6.20;;;5.60;;
14748;SDS011;7466;53.574;9.976;2023-04-06T07:28:58;6.87;;;5.97;;
14748;SDS011;7466;53.574;9.976;2023-04-06T07:31:25;6.27;;;5.63;;
14748;SDS011;7466;53.574;9.976;2023-04-06T07:33:52;8.40;;;6.27;;
14748;SDS011;7466;53.574;9.976;2023-04-06T07:36:22;9.07;;;5.90;;
14748;SDS011;7466;53.574;9.976;2023-04-06T07:38:49;6.53;;;5.80;;
14748;SDS011;7466;53.574;9.976;2023-04-06T07:41:18;7.43;;;5.60;;
14748;SDS011;7466;53.574;9.976;2023-04-06T07:43:45;7.27;;;5.43;;
14748;SDS011;7466;53.574;9.976;2023-04-06T07:46:12;11.87;;;6.30;;
14748;SDS011;7466;53.574;9.976;2023-04-06T07:48:39;10.40;;;6.67;;
14748;SDS011;7466;53.574;9.976;2023-04-06T07:51:06;8.00;;;5.13;;
14748;SDS011;7466;53.574;9.976;2023-04-06T07:53:39;6.07;;;5.43;;
14748;SDS011;7466;53.574;9.976;2023-04-06T07:56:06;6.50;;;5.60;;
14748;SDS011;7466;53.574;9.976;2023-04-06T07:58:35;6.67;;;5.43;;
14748;SDS011;7466;53.574;9.976;2023-04-06T08:01:02;13.53;;;5.87;;
14748;SDS011;7466;53.574;9.976;2023-04-06T08:03:29;6.60;;;5.40;;
14748;SDS011;7466;53.574;9.976;2023-04-06T08:05:56;5.90;;;5.30;;
14748;SDS011;7466;53.574;9.976;2023-04-06T08:08:23;5.73;;;5.23;;
14748;SDS011;7466;53.574;9.976;2023-04-06T08:10:50;7.63;;;5.13;;
14748;SDS011;7466;53.574;9.976;2023-04-06T08:13:17;8.20;;;5.90;;
14748;SDS011;7466;53.574;9.976;2023-04-06T08:15:46;8.73;;;5.67;;
14748;SDS011;7466;53.574;9.976;2023-04-06T08:18:13;5.53;;;4.83;;
14748;SDS011;7466;53.574;9.976;2023-04-06T08:20:40;7.43;;;5.63;;
14748;SDS011;7466;53.574;9.976;2023-04-06T08:23:07;8.00;;;5.50;;
14748;SDS011;7466;53.574;9.976;2023-04-06T08:25:34;6.37;;;5.73;;
14748;SDS011;7466;53.574;9.976;2023-04-06T08:28:05;9.03;;;5.40;;
14748;SDS011;7466;53.574;9.976;2023-04-06T08:30:33;8.97;;;6.10;;
14748;SDS011;7466;53.574;9.976;2023-04-06T08:33:02;7.13;;;5.67;;
14748;SDS011;7466;53.574;9.976;2023-04-06T08:35:29;8.83;;;5.63;;
14748;SDS011;7466;53.574;9.976;2023-04-06T08:37:56;6.60;;;5.73;;
14748;SDS011;7466;53.574;9.976;2023-04-06T08:40:24;10.87;;;6.03;;
14748;SDS011;7466;53.574;9.976;2023-04-06T08:42:52;6.23;;;5.33;;
14748;SDS011;7466;53.574;9.976;2023-04-06T08:45:21;9.70;;;6.90;;
14748;SDS011;7466;53.574;9.976;2023-04-06T08:47:48;6.87;;;6.20;;
14748;SDS011;7466;53.574;9.976;2023-04-06T08:50:18;7.97;;;6.13;;
14748;SDS011;7466;53.574;9.976;2023-04-06T08:52:46;7.20;;;6.00;;
14748;SDS011;7466;53.574;9.976;2023-04-06T08:55:14;12.47;;;6.30;;
14748;SDS011;7466;53.574;9.976;2023-04-06T08:57:41;8.00;;;5.80;;
14748;SDS011;7466;53.574;9.976;2023-04-06T09:00:10;10.67;;;6.10;;
14748;SDS011;7466;53.574;9.976;2023-04-06T09:02:38;6.93;;;6.23;;
14748;SDS011;7466;53.574;9.976;2023-04-06T09:05:07;6.37;;;5.77;;
14748;SDS011;7466;53.574;9.976;2023-04-06T09:07:36;6.27;;;5.67;;
14748;SDS011;7466;53.574;9.976;2023-04-06T09:10:03;8.10;;;6.13;;
14748;SDS011;7466;53.574;9.976;2023-04-06T09:12:31;10.00;;;6.00;;
14748;SDS011;7466;53.574;9.976;2023-04-06T09:14:59;10.33;;;6.03;;
14748;SDS011;7466;53.574;9.976;2023-04-06T09:17:28;7.60;;;5.23;;
14748;SDS011;7466;53.574;9.976;2023-04-06T09:19:57;5.73;;;5.23;;
14748;SDS011;7466;53.574;9.976;2023-04-06T09:22:25;7.47;;;4.83;;
14748;SDS011;7466;53.574;9.976;2023-04-06T09:25:02;5.20;;;4.67;;
14748;SDS011;7466;53.574;9.976;2023-04-06T09:27:29;6.70;;;4.87;;
14748;SDS011;7466;53.574;9.976;2023-04-06T09:30:02;4.90;;;4.37;;
14748;SDS011;7466;53.574;9.976;2023-04-06T09:32:31;5.40;;;4.87;;
14748;SDS011;7466;53.574;9.976;2023-04-06T09:35:05;5.37;;;4.93;;
14748;SDS011;7466;53.574;9.976;2023-04-06T09:37:33;5.97;;;4.63;;
14748;SDS011;7466;53.574;9.976;2023-04-06T09:40:05;10.13;;;4.83;;
14748;SDS011;7466;53.574;9.976;2023-04-06T09:42:33;4.73;;;4.33;;
14748;SDS011;7466;53.574;9.976;2023-04-06T09:45:00;4.97;;;4.57;;
14748;SDS011;7466;53.574;9.976;2023-04-06T09:47:28;5.63;;;4.90;;
14748;SDS011;7466;53.574;9.976;2023-04-06T09:49:56;5.77;;;5.03;;
14748;SDS011;7466;53.574;9.976;2023-04-06T09:52:26;7.47;;;5.10;;
14748;SDS011;7466;53.574;9.976;2023-04-06T09:54:59;4.40;;;4.00;;
14748;SDS011;7466;53.574;9.976;2023-04-06T09:57:32;5.30;;;4.20;;
14748;SDS011;7466;53.574;9.976;2023-04-06T10:00:03;4.60;;;4.20;;
14748;SDS011;7466;53.574;9.976;2023-04-06T10:02:39;4.27;;;3.87;;
14748;SDS011;7466;53.574;9.976;2023-04-06T10:05:13;3.90;;;3.40;;
14748;SDS011;7466;53.574;9.976;2023-04-06T10:07:46;4.07;;;3.70;;
14748;SDS011;7466;53.574;9.976;2023-04-06T10:10:17;5.00;;;3.70;;
14748;SDS011;7466;53.574;9.976;2023-04-06T10:12:45;4.43;;;3.73;;
14748;SDS011;7466;53.574;9.976;2023-04-06T10:15:14;4.30;;;3.90;;
14748;SDS011;7466;53.574;9.976;2023-04-06T10:17:42;5.30;;;3.50;;
14748;SDS011;7466;53.574;9.976;2023-04-06T10:20:10;6.67;;;3.70;;
14748;SDS011;7466;53.574;9.976;2023-04-06T10:22:50;4.67;;;3.97;;
14748;SDS011;7466;53.574;9.976;2023-04-06T10:25:32;5.63;;;4.20;;
14748;SDS011;7466;53.574;9.976;2023-04-06T10:28:01;5.30;;;4.40;;
14748;SDS011;7466;53.574;9.976;2023-04-06T10:30:32;5.10;;;4.13;;
14748;SDS011;7466;53.574;9.976;2023-04-06T10:33:12;5.13;;;4.57;;
14748;SDS011;7466;53.574;9.976;2023-04-06T10:35:39;5.10;;;4.13;;
14748;SDS011;7466;53.574;9.976;2023-04-06T10:38:07;4.73;;;4.30;;
14748;SDS011;7466;53.574;9.976;2023-04-06T10:40:35;6.83;;;4.73;;
14748;SDS011;7466;53.574;9.976;2023-04-06T10:43:11;5.90;;;4.50;;
14748;SDS011;7466;53.574;9.976;2023-04-06T10:45:40;4.93;;;4.50;;
14748;SDS011;7466;53.574;9.976;2023-04-06T10:48:14;7.60;;;4.40;;
14748;SDS011;7466;53.574;9.976;2023-04-06T10:50:43;5.53;;;4.63;;
14748;SDS011;7466;53.574;9.976;2023-04-06T10:53:11;7.80;;;4.57;;
14748;SDS011;7466;53.574;9.976;2023-04-06T10:55:46;5.40;;;4.40;;
14748;SDS011;7466;53.574;9.976;2023-04-06T10:58:16;5.77;;;4.80;;
14748;SDS011;7466;53.574;9.976;2023-04-06T11:00:44;6.27;;;5.67;;
14748;SDS011;7466;53.574;9.976;2023-04-06T11:03:11;5.80;;;5.13;;
14748;SDS011;7466;53.574;9.976;2023-04-06T11:05:38;5.70;;;5.30;;
14748;SDS011;7466;53.574;9.976;2023-04-06T11:08:21;6.97;;;5.73;;
14748;SDS011;7466;53.574;9.976;2023-04-06T11:10:49;6.50;;;5.37;;
14748;SDS011;7466;53.574;9.976;2023-04-06T11:13:18;5.87;;;5.37;;
14748;SDS011;7466;53.574;9.976;2023-04-06T11:15:45;5.80;;;5.30;;
14748;SDS011;7466;53.574;9.976;2023-04-06T11:18:17;7.23;;;5.50;;
14748;SDS011;7466;53.574;9.976;2023-04-06T11:20:47;6.43;;;5.83;;
14748;SDS011;7466;53.574;9.976;2023-04-06T11:23:21;7.00;;;6.30;;
14748;SDS011;7466;53.574;9.976;2023-04-06T11:25:51;6.87;;;6.17;;
14748;SDS011;7466;53.574;9.976;2023-04-06T11:28:20;6.40;;;5.80;;
14748;SDS011;7466;53.574;9.976;2023-04-06T11:30:47;7.27;;;6.30;;
14748;SDS011;7466;53.574;9.976;2023-04-06T11:33:21;7.10;;;6.27;;
14748;SDS011;7466;53.574;9.976;2023-04-06T11:35:49;6.93;;;6.33;;
14748;SDS011;7466;53.574;9.976;2023-04-06T11:38:17;7.27;;;6.57;;
14748;SDS011;7466;53.574;9.976;2023-04-06T11:40:45;7.40;;;6.80;;
14748;SDS011;7466;53.574;9.976;2023-04-06T11:43:12;7.10;;;6.57;;
14748;SDS011;7466;53.574;9.976;2023-04-06T11:45:40;7.57;;;6.70;;
14748;SDS011;7466;53.574;9.976;2023-04-06T11:48:17;7.80;;;7.20;;
14748;SDS011;7466;53.574;9.976;2023-04-06T11:50:46;7.97;;;6.57;;
14748;SDS011;7466;53.574;9.976;2023-04-06T11:53:13;8.93;;;7.20;;
14748;SDS011;7466;53.574;9.976;2023-04-06T11:55:40;6.47;;;5.97;;
14748;SDS011;7466;53.574;9.976;2023-04-06T11:58:10;7.63;;;6.83;;
14748;SDS011;7466;53.574;9.976;2023-04-06T12:00:38;8.50;;;6.37;;
14748;SDS011;7466;53.574;9.976;2023-04-06T12:03:10;7.07;;;6.37;;
14748;SDS011;7466;53.574;9.976;2023-04-06T12:05:40;9.40;;;6.63;;
14748;SDS011;7466;53.574;9.976;2023-04-06T12:08:08;7.40;;;6.70;;
14748;SDS011;7466;53.574;9.976;2023-04-06T12:10:35;7.37;;;6.80;;
14748;SDS011;7466;53.574;9.976;2023-04-06T12:13:02;7.57;;;6.87;;
14748;SDS011;7466;53.574;9.976;2023-04-06T12:15:29;7.87;;;7.10;;
14748;SDS011;7466;53.574;9.976;2023-04-06T12:17:58;7.47;;;6.63;;
14748;SDS011;7466;53.574;9.976;2023-04-06T12:20:25;7.37;;;6.80;;
14748;SDS011;7466;53.574;9.976;2023-04-06T12:22:52;7.37;;;6.67;;
14748;SDS011;7466;53.574;9.976;2023-04-06T12:25:19;7.73;;;7.03;;
14748;SDS011;7466;53.574;9.976;2023-04-06T12:27:46;7.07;;;6.37;;
14748;SDS011;7466;53.574;9.976;2023-04-06T12:30:14;9.50;;;6.97;;
14748;SDS011;7466;53.574;9.976;2023-04-06T12:32:47;9.20;;;6.80;;
14748;SDS011;7466;53.574;9.976;2023-04-06T12:35:16;7.63;;;7.03;;
14748;SDS011;7466;53.574;9.976;2023-04-06T12:37:47;7.80;;;7.00;;
14748;SDS011;7466;53.574;9.976;2023-04-06T12:40:14;7.40;;;6.60;;
14748;SDS011;7466;53.574;9.976;2023-04-06T12:42:41;8.47;;;7.10;;
14748;SDS011;7466;53.574;9.976;2023-04-06T12:45:09;6.83;;;6.30;;
14748;SDS011;7466;53.574;9.976;2023-04-06T12:47:37;7.30;;;6.70;;
14748;SDS011;7466;53.574;9.976;2023-04-06T12:50:04;8.13;;;7.03;;
14748;SDS011;7466;53.574;9.976;2023-04-06T12:52:33;7.97;;;6.70;;
14748;SDS011;7466;53.574;9.976;2023-04-06T12:55:01;8.15;;;7.40;;
14748;SDS011;7466;53.574;9.976;2023-04-06T12:57:30;9.48;;;7.60;;
14748;SDS011;7466;53.574;9.976;2023-04-06T13:00:05;10.57;;;7.20;;
14748;SDS011;7466;53.574;9.976;2023-04-06T13:02:39;13.37;;;7.50;;
14748;SDS011;7466;53.574;9.976;2023-04-06T13:05:11;7.47;;;6.73;;
14748;SDS011;7466;53.574;9.976;2023-04-06T13:07:40;7.80;;;7.27;;
14748;SDS011;7466;53.574;9.976;2023-04-06T13:10:07;7.93;;;7.13;;
14748;SDS011;7466;53.574;9.976;2023-04-06T13:12:35;8.30;;;6.80;;
14748;SDS011;7466;53.574;9.976;2023-04-06T13:15:02;8.43;;;7.28;;
14748;SDS011;7466;53.574;9.976;2023-04-06T13:17:31;7.95;;;7.25;;
14748;SDS011;7466;53.574;9.976;2023-04-06T13:19:58;8.15;;;7.45;;
14748;SDS011;7466;53.574;9.976;2023-04-06T13:22:25;8.02;;;7.40;;
14748;SDS011;7466;53.574;9.976;2023-04-06T13:25:05;7.75;;;7.03;;
14748;SDS011;7466;53.574;9.976;2023-04-06T13:27:32;8.00;;;7.38;;
14748;SDS011;7466;53.574;9.976;2023-04-06T13:30:00;8.73;;;7.80;;
14748;SDS011;7466;53.574;9.976;2023-04-06T13:32:28;9.93;;;7.50;;
14748;SDS011;7466;53.574;9.976;2023-04-06T13:34:56;8.00;;;7.18;;
14748;SDS011;7466;53.574;9.976;2023-04-06T13:37:25;7.85;;;7.10;;
14748;SDS011;7466;53.574;9.976;2023-04-06T13:39:54;8.02;;;7.15;;
14748;SDS011;7466;53.574;9.976;2023-04-06T13:42:23;7.72;;;7.03;;
14748;SDS011;7466;53.574;9.976;2023-04-06T13:47:53;8.15;;;7.50;;
14748;SDS011;7466;53.574;9.976;2023-04-06T13:50:39;7.55;;;6.95;;
14748;SDS011;7466;53.574;9.976;2023-04-06T13:53:07;8.63;;;7.83;;
14748;SDS011;7466;53.574;9.976;2023-04-06T13:55:33;7.73;;;7.13;;
14748;SDS011;7466;53.574;9.976;2023-04-06T13:58:02;8.67;;;7.73;;
14748;SDS011;7466;53.574;9.976;2023-04-06T14:00:29;8.57;;;7.80;;
14748;SDS011;7466;53.574;9.976;2023-04-06T14:05:41;9.40;;;8.33;;
14748;SDS011;7466;53.574;9.976;2023-04-06T14:08:08;8.47;;;7.67;;
14748;SDS011;7466;53.574;9.976;2023-04-06T14:13:08;8.30;;;7.50;;
14748;SDS011;7466;53.574;9.976;2023-04-06T14:15:37;9.40;;;8.10;;
14748;SDS011;7466;53.574;9.976;2023-04-06T14:18:03;10.63;;;8.27;;
14748;SDS011;7466;53.574;9.976;2023-04-06T14:20:31;8.50;;;7.87;;
14748;SDS011;7466;53.574;9.976;2023-04-06T14:22:59;8.20;;;7.60;;
14748;SDS011;7466;53.574;9.976;2023-04-06T14:25:26;7.87;;;7.27;;
14748;SDS011;7466;53.574;9.976;2023-04-06T14:27:56;10.03;;;7.60;;
14748;SDS011;7466;53.574;9.976;2023-04-06T14:30:24;8.77;;;7.87;;
14748;SDS011;7466;53.574;9.976;2023-04-06T14:32:54;11.17;;;7.70;;
14748;SDS011;7466;53.574;9.976;2023-04-06T14:35:37;8.93;;;7.70;;
14748;SDS011;7466;53.574;9.976;2023-04-06T14:38:04;7.90;;;7.20;;
14748;SDS011;7466;53.574;9.976;2023-04-06T14:40:34;8.67;;;7.27;;
14748;SDS011;7466;53.574;9.976;2023-04-06T14:43:05;7.70;;;7.10;;
14748;SDS011;7466;53.574;9.976;2023-04-06T14:45:34;8.23;;;7.30;;
14748;SDS011;7466;53.574;9.976;2023-04-06T14:48:02;12.30;;;8.30;;
14748;SDS011;7466;53.574;9.976;2023-04-06T14:50:38;9.07;;;7.83;;
14748;SDS011;7466;53.574;9.976;2023-04-06T14:53:05;9.13;;;7.73;;
14748;SDS011;7466;53.574;9.976;2023-04-06T14:55:38;8.17;;;7.37;;
14748;SDS011;7466;53.574;9.976;2023-04-06T14:58:10;8.00;;;7.30;;
14748;SDS011;7466;53.574;9.976;2023-04-06T15:00:40;7.17;;;6.47;;
14748;SDS011;7466;53.574;9.976;2023-04-06T15:03:07;7.70;;;6.93;;
14748;SDS011;7466;53.574;9.976;2023-04-06T15:05:34;7.27;;;6.67;;
14748;SDS011;7466;53.574;9.976;2023-04-06T15:08:01;8.53;;;7.57;;
14748;SDS011;7466;53.574;9.976;2023-04-06T15:10:30;8.67;;;7.60;;
14748;SDS011;7466;53.574;9.976;2023-04-06T15:13:14;8.20;;;7.50;;